Time;durP1;ratioP1;P1;durP2;ratioP2;P2;SDS_P1;SDS_P2;PMS_P1;PMS_P2;Temp;Humidity;BMP_temperature;BMP_pressure;BME280_temperature;BME280_humidity;BME280_pressure;Samples;Min_cycle;Max_cycle;Signal;HPM_P1;HPM_P2
2021/08/08 00:00:20;;;;;;;2.20;2.10;;;;;;;20.02;67.67;100017.91;684724;28;4269;-61
2021/08/08 00:00:42;;;;;;;2.40;2.20;;;;;;;20.02;67.63;100017.91;683653;28;44953;-62
2021/08/08 00:01:03;;;;;;;2.30;2.20;;;;;;;20.02;67.51;100014.34;684734;28;18553;-62
2021/08/08 00:01:25;;;;;;;2.65;2.03;;;;;;;20.02;67.54;100020.66;683937;28;21527;-62
2021/08/08 00:01:46;;;;;;;3.25;2.17;;;;;;;20.03;67.44;100021.47;683290;28;47238;-62
2021/08/08 00:02:07;;;;;;;2.63;2.30;;;;;;;20.02;67.60;100019.84;684328;28;22217;-62
2021/08/08 00:02:30;;;;;;;2.50;2.10;;;;;;;20.02;67.62;100012.44;684533;28;21515;-62
2021/08/08 00:02:52;;;;;;;2.42;2.22;;;;;;;20.03;67.51;100018.72;682500;28;67506;-62
2021/08/08 00:03:13;;;;;;;2.35;2.25;;;;;;;20.03;67.49;100011.34;683025;28;46235;-62
2021/08/08 00:03:34;;;;;;;2.08;1.92;;;;;;;20.04;67.37;100009.44;683990;28;20733;-62
2021/08/08 00:03:56;;;;;;;2.95;2.10;;;;;;;20.03;67.39;100019.56;684468;28;22402;-62
2021/08/08 00:04:18;;;;;;;2.22;2.03;;;;;;;20.03;67.38;100016.84;684410;28;19776;-62
2021/08/08 00:04:39;;;;;;;2.45;2.25;;;;;;;20.04;67.24;100014.91;683577;28;45003;-62
2021/08/08 00:05:00;;;;;;;2.53;2.30;;;;;;;20.03;67.20;100016.84;684113;28;24336;-62
2021/08/08 00:05:21;;;;;;;2.33;2.10;;;;;;;20.04;67.26;100017.66;684256;28;23431;-62
2021/08/08 00:05:43;;;;;;;2.30;2.10;;;;;;;20.02;67.31;100020.66;684144;28;20508;-62
2021/08/08 00:06:04;;;;;;;2.25;2.15;;;;;;;20.01;67.16;100018.16;683449;28;44292;-62
2021/08/08 00:06:25;;;;;;;2.30;2.10;;;;;;;19.99;67.28;100011.03;683987;28;22445;-61
2021/08/08 00:06:46;;;;;;;2.40;2.20;;;;;;;19.99;67.20;100021.97;683156;28;46303;-62
2021/08/08 00:07:08;;;;;;;2.30;2.20;;;;;;;20.01;67.18;100029.13;684239;28;22651;-62
2021/08/08 00:07:29;;;;;;;2.00;1.90;;;;;;;20.00;67.06;100025.56;683452;28;46213;-62
2021/08/08 00:07:50;;;;;;;2.33;2.10;;;;;;;19.99;66.99;100016.50;683472;28;46340;-62
2021/08/08 00:08:12;;;;;;;2.37;2.17;;;;;;;19.97;67.21;100017.88;683517;28;45387;-62
2021/08/08 00:08:34;;;;;;;2.42;2.22;;;;;;;19.97;67.11;100018.69;684149;28;27296;-62
2021/08/08 00:08:56;;;;;;;2.90;2.30;;;;;;;19.97;67.03;100020.59;682584;28;69457;-62
2021/08/08 00:09:17;;;;;;;2.20;2.10;;;;;;;19.97;67.39;100018.69;684116;28;22496;-62
2021/08/08 00:09:38;;;;;;;2.38;2.20;;;;;;;19.96;67.04;100022.50;684087;28;21725;-62
2021/08/08 00:10:00;;;;;;;2.75;2.20;;;;;;;19.94;67.10;100016.47;684138;28;22505;-62
2021/08/08 00:10:21;;;;;;;2.55;2.20;;;;;;;19.94;67.09;100029.34;683193;28;46397;-62
2021/08/08 00:10:42;;;;;;;2.10;2.00;;;;;;;19.93;67.09;100023.00;684368;28;21554;-62
2021/08/08 00:11:04;;;;;;;2.28;2.08;;;;;;;19.93;66.71;100020.28;683992;28;22398;-61
2021/08/08 00:11:25;;;;;;;2.10;1.95;;;;;;;19.93;67.20;100023.00;683217;28;43711;-62
2021/08/08 00:11:47;;;;;;;2.35;2.15;;;;;;;19.92;67.24;100015.88;683187;28;45114;-62
2021/08/08 00:12:08;;;;;;;2.20;2.00;;;;;;;19.93;67.19;100017.53;684535;28;19490;-62
2021/08/08 00:12:31;;;;;;;2.00;1.90;;;;;;;19.93;67.06;100023.00;684091;28;39597;-62
2021/08/08 00:12:54;;;;;;;2.45;2.15;;;;;;;19.94;67.08;100029.34;685034;28;900;-62
2021/08/08 00:13:16;;;;;;;2.42;2.22;;;;;;;19.93;66.96;100019.44;684755;28;1577;-62
2021/08/08 00:13:38;;;;;;;2.75;2.13;;;;;;;19.93;66.88;100019.44;683972;28;21348;-62
2021/08/08 00:13:59;;;;;;;2.25;2.08;;;;;;;19.91;66.89;100025.19;683448;28;46289;-62
2021/08/08 00:14:21;;;;;;;1.95;1.85;;;;;;;19.92;66.99;100028.75;686916;28;11706;-62
2021/08/08 00:14:42;;;;;;;2.22;2.13;;;;;;;19.91;66.84;100027.13;685950;28;46379;-62
2021/08/08 00:15:06;;;;;;;2.38;2.17;;;;;;;19.88;66.61;100022.13;687038;28;8908;-62
2021/08/08 00:15:27;;;;;;;2.15;2.05;;;;;;;19.87;66.66;100029.50;684207;28;92342;-62
2021/08/08 00:15:48;;;;;;;2.35;2.15;;;;;;;19.89;66.51;100021.03;686549;28;23420;-62
2021/08/08 00:16:09;;;;;;;2.50;2.30;;;;;;;19.86;66.60;100021.53;686261;28;18348;-62
2021/08/08 00:16:32;;;;;;;2.38;2.20;;;;;;;19.88;66.69;100027.63;684525;28;1713;-62
2021/08/08 00:16:58;;;;;;;2.58;2.38;;;;;;;19.85;66.85;100028.94;682857;28;61413;-62
2021/08/08 00:17:19;;;;;;;2.10;2.00;;;;;;;19.82;66.78;100026.72;684428;28;12132;-62
2021/08/08 00:17:41;;;;;;;2.08;1.98;;;;;;;19.85;66.80;100028.13;684347;28;14516;-63
2021/08/08 00:18:04;;;;;;;3.35;2.15;;;;;;;19.84;66.76;100027.28;684287;28;22250;-62
2021/08/08 00:18:26;;;;;;;2.40;2.20;;;;;;;19.83;66.75;100031.13;684131;28;15106;-62
2021/08/08 00:18:51;;;;;;;2.40;2.20;;;;;;;19.83;66.90;100028.38;683095;28;61761;-62
2021/08/08 00:19:14;;;;;;;2.10;2.00;;;;;;;19.84;66.89;100029.22;685072;28;4036;-62
2021/08/08 00:19:36;;;;;;;2.08;1.98;;;;;;;19.83;66.72;100025.66;684862;28;930;-62
2021/08/08 00:20:02;;;;;;;2.10;2.00;;;;;;;19.83;66.69;100019.31;682752;28;60486;-62
2021/08/08 00:20:25;;;;;;;2.10;2.00;;;;;;;19.83;66.55;100024.81;684549;28;4539;-62
2021/08/08 00:20:46;;;;;;;2.30;2.20;;;;;;;19.82;66.37;100023.97;683323;28;46474;-62
2021/08/08 00:21:08;;;;;;;1.95;1.85;;;;;;;19.83;66.65;100031.13;683720;28;46590;-62
2021/08/08 00:21:29;;;;;;;2.60;2.10;;;;;;;19.82;66.71;100025.91;684563;28;6389;-62
2021/08/08 00:21:51;;;;;;;3.07;2.07;;;;;;;19.81;66.70;100027.78;683430;28;46448;-62
2021/08/08 00:22:12;;;;;;;2.05;1.90;;;;;;;19.79;66.70;100025.31;683550;28;44432;-62
2021/08/08 00:22:33;;;;;;;2.30;2.10;;;;;;;19.78;66.71;100029.16;684191;28;22253;-62
2021/08/08 00:22:54;;;;;;;2.25;2.10;;;;;;;19.80;66.83;100034.38;683687;28;46740;-62
2021/08/08 00:23:17;;;;;;;2.40;2.00;;;;;;;19.79;66.77;100033.53;683791;28;23481;-62
2021/08/08 00:23:38;;;;;;;2.33;1.95;;;;;;;19.79;66.72;100033.53;683153;28;43756;-62
2021/08/08 00:23:59;;;;;;;2.10;1.95;;;;;;;19.79;66.94;100033.53;684222;28;22417;-62
2021/08/08 00:24:20;;;;;;;2.30;2.20;;;;;;;19.79;66.71;100035.44;684921;28;1110;-62
2021/08/08 00:24:43;;;;;;;2.22;2.10;;;;;;;19.78;66.72;100031.03;684129;28;20764;-62
2021/08/08 00:25:06;;;;;;;2.90;2.08;;;;;;;19.77;66.72;100030.22;682089;28;93264;-62
2021/08/08 00:25:28;;;;;;;2.17;2.08;;;;;;;19.77;66.62;100040.38;684188;28;14958;-62
2021/08/08 00:25:50;;;;;;;2.08;1.92;;;;;;;19.76;66.72;100036.78;684680;28;965;-62
2021/08/08 00:26:11;;;;;;;2.50;2.30;;;;;;;19.74;66.61;100033.44;683858;28;41263;-62
2021/08/08 00:26:33;;;;;;;2.40;2.20;;;;;;;19.75;66.69;100032.38;684349;28;16333;-62
2021/08/08 00:26:55;;;;;;;2.28;2.17;;;;;;;19.74;66.73;100033.44;682275;28;63974;-62
2021/08/08 00:27:17;;;;;;;2.15;1.95;;;;;;;19.72;66.63;100035.63;683738;28;13608;-62
2021/08/08 00:27:38;;;;;;;2.30;2.10;;;;;;;19.72;66.54;100035.63;682419;28;46469;-62
2021/08/08 00:28:02;;;;;;;2.40;2.10;;;;;;;19.73;66.47;100033.69;683155;28;36613;-62
2021/08/08 00:28:24;;;;;;;3.63;2.15;;;;;;;19.73;66.70;100030.97;682017;28;67484;-62
2021/08/08 00:28:48;;;;;;;4.03;2.25;;;;;;;19.72;66.56;100023.84;683796;28;45254;-62
2021/08/08 00:29:09;;;;;;;2.00;1.80;;;;;;;19.73;66.65;100031.81;684228;28;93281;-62
2021/08/08 00:29:30;;;;;;;2.00;1.90;;;;;;;19.73;66.46;100026.31;684251;28;22394;-62
2021/08/08 00:29:52;;;;;;;2.20;2.10;;;;;;;19.74;66.41;100030.72;683762;28;22500;-62
2021/08/08 00:30:14;;;;;;;2.10;2.00;;;;;;;19.72;66.64;100030.16;682870;28;42867;-62
2021/08/08 00:30:36;;;;;;;2.00;1.90;;;;;;;19.72;66.45;100019.19;680361;28;46500;-62
2021/08/08 00:30:58;;;;;;;2.20;2.00;;;;;;;19.72;66.50;100032.88;680796;28;44765;-62
2021/08/08 00:31:24;;;;;;;2.28;2.08;;;;;;;19.73;66.44;100025.47;678060;29;45237;-62
2021/08/08 00:31:46;;;;;;;2.00;1.90;;;;;;;19.72;66.50;100032.06;676230;29;135932;-62
2021/08/08 00:32:08;;;;;;;2.20;2.10;;;;;;;19.71;66.47;100033.94;679932;29;46424;-62
2021/08/08 00:32:30;;;;;;;2.15;2.05;;;;;;;19.69;66.63;100030.66;678788;29;34138;-62
2021/08/08 00:32:53;;;;;;;2.30;2.20;;;;;;;19.69;66.55;100027.91;678180;29;38986;-62
2021/08/08 00:33:23;;;;;;;2.13;2.03;;;;;;;19.68;66.76;100034.47;676884;29;137962;-62
2021/08/08 00:33:44;;;;;;;2.05;1.95;;;;;;;19.67;66.76;100030.09;681393;29;22327;-62
2021/08/08 00:34:07;;;;;;;2.22;2.05;;;;;;;19.68;66.77;100033.66;678869;29;23435;-62
2021/08/08 00:34:29;;;;;;;2.53;2.03;;;;;;;19.68;66.63;100031.72;676374;29;69399;-62
2021/08/08 00:34:52;;;;;;;2.05;1.90;;;;;;;19.67;66.59;100040.19;677342;29;59499;-62
2021/08/08 00:35:13;;;;;;;2.25;2.15;;;;;;;19.66;66.61;100031.16;677471;29;10399;-62
2021/08/08 00:35:36;;;;;;;2.17;2.08;;;;;;;19.66;66.54;100036.63;675307;29;45262;-62
2021/08/08 00:35:57;;;;;;;1.98;1.88;;;;;;;19.67;66.63;100037.47;675725;29;69387;-62
2021/08/08 00:36:20;;;;;;;2.10;2.00;;;;;;;19.66;66.60;100041.28;676835;29;25242;-62
2021/08/08 00:36:42;;;;;;;2.10;2.00;;;;;;;19.66;66.39;100038.56;675517;29;44210;-62
2021/08/08 00:37:05;;;;;;;2.60;2.10;;;;;;;19.66;66.54;100038.56;676031;29;46293;-62
2021/08/08 00:37:26;;;;;;;2.65;2.20;;;;;;;19.66;66.39;100046.78;678926;29;44379;-62
2021/08/08 00:37:48;;;;;;;2.00;1.90;;;;;;;19.65;66.59;100043.19;677873;29;46304;-62
2021/08/08 00:38:10;;;;;;;1.90;1.80;;;;;;;19.65;66.38;100048.66;677334;29;59403;-62
2021/08/08 00:38:34;;;;;;;2.20;2.00;;;;;;;19.63;66.46;100040.69;678165;29;54062;-62
2021/08/08 00:38:56;;;;;;;2.60;2.20;;;;;;;19.63;66.34;100043.44;679482;29;1188;-62
2021/08/08 00:39:20;;;;;;;2.85;2.17;;;;;;;19.62;66.34;100047.28;676101;29;69512;-62
2021/08/08 00:39:42;;;;;;;2.10;2.00;;;;;;;19.63;66.38;100045.38;677577;29;65947;-62
2021/08/08 00:40:05;;;;;;;2.28;2.15;;;;;;;19.62;66.47;100043.69;680902;28;22401;-62
2021/08/08 00:40:28;;;;;;;2.10;2.00;;;;;;;19.61;66.52;100044.81;681488;28;82613;-62
2021/08/08 00:40:49;;;;;;;2.10;2.00;;;;;;;19.61;66.36;100047.53;680611;28;46432;-62
2021/08/08 00:41:11;;;;;;;2.80;2.10;;;;;;;19.61;66.49;100044.81;677880;29;21288;-61
2021/08/08 00:41:33;;;;;;;2.28;2.00;;;;;;;19.59;66.58;100045.06;673965;29;67481;-62
2021/08/08 00:41:55;;;;;;;2.20;2.10;;;;;;;19.59;66.83;100038.72;678177;29;46287;-62
2021/08/08 00:42:18;;;;;;;2.10;1.90;;;;;;;19.58;66.71;100043.38;677779;29;1102;-62
2021/08/08 00:42:42;;;;;;;2.30;2.10;;;;;;;19.60;66.57;100043.13;679334;29;1289;-62
2021/08/08 00:43:07;;;;;;;2.22;2.08;;;;;;;19.59;66.67;100046.94;674228;29;108805;-61
2021/08/08 00:43:29;;;;;;;2.50;2.10;;;;;;;19.59;66.55;100030.50;677470;29;80165;-62
2021/08/08 00:43:50;;;;;;;2.15;1.95;;;;;;;19.58;66.63;100039.81;678667;29;23569;-61
2021/08/08 00:44:12;;;;;;;2.13;2.03;;;;;;;19.58;66.73;100042.56;679496;29;25676;-62
2021/08/08 00:44:33;;;;;;;2.65;2.17;;;;;;;19.57;66.55;100046.38;678346;29;29140;-62
2021/08/08 00:44:54;;;;;;;2.20;2.10;;;;;;;19.57;66.59;100047.19;678842;29;21947;-62
2021/08/08 00:45:17;;;;;;;2.28;2.17;;;;;;;19.57;66.67;100040.91;675392;29;44318;-62
2021/08/08 00:45:41;;;;;;;2.50;2.08;;;;;;;19.56;66.52;100056.50;671869;29;92186;-62
2021/08/08 00:46:07;;;;;;;2.30;2.13;;;;;;;19.56;66.70;100041.97;673905;29;131496;-62
2021/08/08 00:46:29;;;;;;;2.13;2.03;;;;;;;19.53;66.51;100043.31;677339;29;16981;-62
2021/08/08 00:46:51;;;;;;;2.28;2.10;;;;;;;19.55;66.53;100043.06;676807;29;43946;-62
2021/08/08 00:47:13;;;;;;;2.75;2.00;;;;;;;19.53;66.58;100040.59;679116;29;21226;-62
2021/08/08 00:47:36;;;;;;;2.05;1.95;;;;;;;19.53;66.50;100040.59;676284;29;115199;-62
2021/08/08 00:47:58;;;;;;;2.72;2.20;;;;;;;19.52;66.57;100046.31;682067;28;1145;-62
2021/08/08 00:48:25;;;;;;;3.90;2.13;;;;;;;19.52;66.46;100043.59;681294;28;93663;-62
2021/08/08 00:48:47;;;;;;;2.22;2.08;;;;;;;19.51;66.67;100044.66;680711;28;20111;-62
2021/08/08 00:49:14;;;;;;;2.72;2.30;;;;;;;19.49;66.72;100041.34;673978;29;122489;-62
2021/08/08 00:49:35;;;;;;;2.42;2.22;;;;;;;19.49;66.70;100041.34;675726;29;1046;-62
2021/08/08 00:49:57;;;;;;;3.35;2.90;;;;;;;19.48;66.80;100054.19;674311;29;44262;-62
2021/08/08 00:50:22;;;;;;;3.45;2.80;;;;;;;19.48;66.97;100043.25;675324;29;14929;-62
2021/08/08 00:50:44;;;;;;;3.17;2.40;;;;;;;19.49;66.72;100047.66;680427;29;25989;-62
2021/08/08 00:51:08;;;;;;;2.30;2.20;;;;;;;19.48;66.89;100042.41;677365;29;92336;-62
2021/08/08 00:51:40;;;;;;;2.42;2.17;;;;;;;19.47;66.80;100046.22;676248;29;160866;-62
2021/08/08 00:52:03;;;;;;;2.20;2.10;;;;;;;19.47;66.88;100049.81;678117;29;115886;-62
2021/08/08 00:52:29;;;;;;;2.80;2.20;;;;;;;19.46;66.94;100042.66;677055;29;136837;-62
2021/08/08 00:52:51;;;;;;;2.83;1.95;;;;;;;19.47;66.99;100048.97;682101;29;963;-62
2021/08/08 00:53:15;;;;;;;2.13;2.03;;;;;;;19.47;67.02;100040.75;680355;29;38510;-62
2021/08/08 00:53:36;;;;;;;2.10;2.00;;;;;;;19.46;67.04;100048.16;681842;28;46395;-62
2021/08/08 00:53:58;;;;;;;2.00;1.90;;;;;;;19.45;66.93;100050.06;681711;28;18333;-62
2021/08/08 00:54:20;;;;;;;2.10;2.00;;;;;;;19.45;66.84;100044.59;680427;29;1183;-62
2021/08/08 00:54:42;;;;;;;2.50;2.30;;;;;;;19.45;66.86;100044.59;681448;29;21628;-62
2021/08/08 00:55:05;;;;;;;2.33;2.20;;;;;;;19.44;66.68;100039.38;680825;28;43276;-62
2021/08/08 00:55:26;;;;;;;2.38;1.95;;;;;;;19.43;66.72;100040.44;677924;29;69492;-62
2021/08/08 00:55:48;;;;;;;2.10;2.00;;;;;;;19.42;66.82;100033.31;679560;28;30373;-62
2021/08/08 00:56:11;;;;;;;2.40;2.20;;;;;;;19.41;66.81;100040.69;682419;28;20457;-62
2021/08/08 00:56:33;;;;;;;2.20;2.10;;;;;;;19.41;66.87;100040.69;682064;28;68051;-62
2021/08/08 00:56:54;;;;;;;2.10;2.00;;;;;;;19.40;66.82;100041.78;681288;29;23080;-62
2021/08/08 00:57:18;;;;;;;2.53;2.10;;;;;;;19.39;66.71;100034.66;679870;29;15394;-61
2021/08/08 00:57:40;;;;;;;3.00;2.00;;;;;;;19.38;66.94;100048.59;680707;29;27774;-62
2021/08/08 00:58:03;;;;;;;2.37;2.03;;;;;;;19.37;67.07;100039.56;680087;28;69411;-62
2021/08/08 00:58:29;;;;;;;2.50;2.30;;;;;;;19.37;66.95;100035.97;677823;29;38077;-62
2021/08/08 00:58:53;;;;;;;2.63;2.17;;;;;;;19.36;66.88;100035.16;675069;29;92295;-62
2021/08/08 00:59:17;;;;;;;2.50;2.10;;;;;;;19.36;67.11;100034.34;675367;29;112828;-63
2021/08/08 00:59:38;;;;;;;2.25;2.05;;;;;;;19.36;66.88;100035.16;677731;29;46317;-61
2021/08/08 01:00:07;;;;;;;2.70;2.50;;;;;;;19.37;67.04;100036.81;678382;29;70249;-62
2021/08/08 01:00:30;;;;;;;2.80;2.40;;;;;;;19.37;66.87;100038.72;678475;28;161028;-62
2021/08/08 01:00:53;;;;;;;2.88;2.20;;;;;;;19.36;66.84;100032.41;683494;28;93079;-62
2021/08/08 01:01:16;;;;;;;2.10;2.00;;;;;;;19.36;66.75;100029.69;684952;28;45349;-62
2021/08/08 01:01:41;;;;;;;2.00;1.90;;;;;;;19.36;66.80;100031.59;684605;28;69489;-62
2021/08/08 01:02:06;;;;;;;2.40;2.00;;;;;;;19.35;66.83;100028.00;680527;28;137980;-62
2021/08/08 01:02:30;;;;;;;2.75;2.10;;;;;;;19.33;66.87;100030.19;678916;29;88815;-62
2021/08/08 01:02:55;;;;;;;2.08;1.98;;;;;;;19.33;66.94;100029.34;677432;28;82766;-62
2021/08/08 01:03:20;;;;;;;1.95;1.83;;;;;;;19.30;67.18;100030.69;674166;29;132325;-62
2021/08/08 01:03:43;;;;;;;2.13;1.95;;;;;;;19.31;66.96;100035.09;677884;29;44721;-62
2021/08/08 01:04:14;;;;;;;2.13;2.03;;;;;;;19.30;67.04;100027.94;674362;29;127323;-62
2021/08/08 01:04:39;;;;;;;2.50;1.90;;;;;;;19.30;66.93;100036.16;678912;29;92142;-62
2021/08/08 01:05:05;;;;;;;2.20;2.00;;;;;;;19.30;66.82;100029.88;677687;29;136824;-62
2021/08/08 01:05:29;;;;;;;2.30;2.10;;;;;;;19.26;66.90;100021.31;677087;29;90347;-62
2021/08/08 01:05:54;;;;;;;2.22;2.05;;;;;;;19.26;66.93;100032.25;678350;28;115876;-62
2021/08/08 01:06:25;;;;;;;2.30;2.03;;;;;;;19.24;67.02;100027.03;677904;29;132784;-62
2021/08/08 01:06:51;;;;;;;2.00;1.90;;;;;;;19.23;67.02;100025.41;675554;29;136272;-62
2021/08/08 01:07:19;;;;;;;3.13;2.20;;;;;;;19.21;67.03;100024.78;676534;29;118763;-62
2021/08/08 01:07:44;;;;;;;2.10;1.95;;;;;;;19.21;67.05;100026.72;677889;29;138867;-62
2021/08/08 01:08:08;;;;;;;2.70;2.28;;;;;;;19.20;67.14;100036.00;676358;29;112324;-62
2021/08/08 01:08:31;;;;;;;2.08;1.98;;;;;;;19.20;67.19;100025.06;679792;28;107199;-63
2021/08/08 01:08:58;;;;;;;2.05;1.95;;;;;;;19.18;67.13;100032.69;679298;28;138845;-62
2021/08/08 01:09:21;;;;;;;1.95;1.85;;;;;;;19.16;67.04;100035.69;685219;28;38113;-62
2021/08/08 01:09:50;;;;;;;2.30;2.10;;;;;;;19.17;67.14;100026.41;683315;28;47415;-62
2021/08/08 01:10:13;;;;;;;2.05;1.95;;;;;;;19.15;67.33;100031.28;681268;28;119400;-63
2021/08/08 01:10:37;;;;;;;2.05;1.95;;;;;;;19.14;67.05;100018.69;683029;28;45254;-62
2021/08/08 01:10:59;;;;;;;2.42;2.22;;;;;;;19.13;67.25;100022.50;684923;28;69073;-62
2021/08/08 01:11:23;;;;;;;2.35;2.25;;;;;;;19.09;67.26;100024.91;685394;28;44107;-62
2021/08/08 01:11:46;;;;;;;2.30;2.10;;;;;;;19.11;67.49;100021.09;683709;28;116057;-62
2021/08/08 01:12:08;;;;;;;2.10;2.00;;;;;;;19.09;67.36;100026.84;682631;28;90810;-62
2021/08/08 01:12:36;;;;;;;2.05;1.95;;;;;;;19.08;67.38;100028.72;679684;28;151140;-62
2021/08/08 01:13:00;;;;;;;1.90;1.80;;;;;;;19.07;67.51;100021.63;681547;28;92959;-62
2021/08/08 01:13:21;;;;;;;2.42;2.22;;;;;;;19.07;67.58;100031.72;679439;28;87322;-62
2021/08/08 01:13:46;;;;;;;2.42;2.28;;;;;;;19.06;67.52;100028.16;679312;28;43147;-63
2021/08/08 01:14:07;;;;;;;2.00;1.90;;;;;;;19.05;67.68;100023.75;679304;28;69404;-62
2021/08/08 01:14:35;;;;;;;2.80;2.30;;;;;;;19.05;67.53;100026.50;678335;28;126623;-62
2021/08/08 01:14:59;;;;;;;2.22;2.03;;;;;;;19.04;67.61;100027.59;681422;28;97185;-61
2021/08/08 01:15:20;;;;;;;2.35;2.15;;;;;;;19.04;67.74;100024.00;681919;29;16213;-61
2021/08/08 01:15:44;;;;;;;2.20;2.10;;;;;;;19.03;67.64;100031.41;682008;28;1546;-62
2021/08/08 01:16:07;;;;;;;2.10;2.00;;;;;;;19.03;67.99;100027.84;681357;29;27410;-62
2021/08/08 01:16:30;;;;;;;2.15;2.05;;;;;;;19.05;67.64;100020.19;678962;29;69602;-62
2021/08/08 01:16:52;;;;;;;2.05;1.95;;;;;;;19.05;67.49;100020.19;682705;28;24272;-62
2021/08/08 01:17:17;;;;;;;2.10;2.00;;;;;;;19.04;67.58;100024.84;681481;28;115168;-62
2021/08/08 01:17:42;;;;;;;2.15;2.05;;;;;;;19.05;67.63;100017.47;684170;28;28439;-62
2021/08/08 01:18:06;;;;;;;2.47;2.28;;;;;;;19.05;67.54;100021.00;680007;28;138034;-62
2021/08/08 01:18:28;;;;;;;3.03;2.03;;;;;;;19.05;67.50;100018.28;684909;28;62404;-62
2021/08/08 01:18:50;;;;;;;3.60;2.10;;;;;;;19.05;67.55;100021.00;684524;28;44138;-62
2021/08/08 01:19:12;;;;;;;2.40;2.30;;;;;;;19.06;67.63;100019.13;686251;28;25834;-62
2021/08/08 01:19:38;;;;;;;2.08;1.98;;;;;;;19.05;67.63;100023.75;683047;28;68593;-62
2021/08/08 01:20:03;;;;;;;2.40;2.10;;;;;;;19.04;67.42;100024.84;680118;28;136911;-62
2021/08/08 01:20:32;;;;;;;2.45;2.13;;;;;;;19.06;67.45;100030.91;681238;28;137539;-62
2021/08/08 01:20:58;;;;;;;2.13;2.00;;;;;;;19.06;67.40;100027.34;679779;28;114943;-62
2021/08/08 01:21:24;;;;;;;2.33;2.10;;;;;;;19.05;67.32;100021.00;681963;28;70186;-62
2021/08/08 01:21:46;;;;;;;2.05;1.92;;;;;;;19.06;67.26;100028.16;681134;28;115962;-62
2021/08/08 01:22:09;;;;;;;3.38;2.03;;;;;;;19.05;67.42;100031.97;682011;28;46424;-62
2021/08/08 01:22:33;;;;;;;2.33;2.13;;;;;;;19.04;67.46;100026.75;679155;29;92270;-61
2021/08/08 01:22:57;;;;;;;5.10;2.20;;;;;;;19.02;67.55;100029.72;678486;29;92278;-62
2021/08/08 01:23:20;;;;;;;2.67;2.10;;;;;;;19.01;67.56;100039.03;679318;29;69693;-62
2021/08/08 01:23:42;;;;;;;2.10;2.00;;;;;;;19.00;67.53;100029.16;679771;29;67421;-62
2021/08/08 01:24:07;;;;;;;2.10;2.00;;;;;;;19.00;67.56;100033.81;680629;29;47632;-62
2021/08/08 01:24:29;;;;;;;2.70;1.90;;;;;;;18.98;67.73;100028.59;679105;28;137895;-62
2021/08/08 01:24:52;;;;;;;2.83;2.15;;;;;;;18.98;67.67;100039.53;681071;28;92309;-62
2021/08/08 01:25:14;;;;;;;2.20;2.10;;;;;;;18.98;67.70;100039.53;684478;28;23425;-62
2021/08/08 01:25:36;;;;;;;2.10;2.00;;;;;;;18.96;67.61;100030.72;684840;28;46352;-62
2021/08/08 01:25:58;;;;;;;2.67;2.10;;;;;;;18.97;67.61;100035.13;681449;28;49196;-62
2021/08/08 01:26:20;;;;;;;2.30;2.20;;;;;;;18.95;67.81;100040.03;681469;29;23434;-62
2021/08/08 01:26:42;;;;;;;2.63;2.13;;;;;;;18.95;67.61;100039.19;681293;28;44132;-62
2021/08/08 01:27:04;;;;;;;2.88;2.13;;;;;;;18.93;67.72;100038.63;682308;28;39530;-62
2021/08/08 01:27:27;;;;;;;2.30;2.10;;;;;;;18.91;67.69;100036.13;681063;28;42568;-62
2021/08/08 01:27:48;;;;;;;1.90;1.80;;;;;;;18.92;67.77;100037.78;678833;29;69473;-62
2021/08/08 01:28:10;;;;;;;1.90;1.80;;;;;;;18.90;67.90;100043.50;681089;29;1176;-62
2021/08/08 01:28:37;;;;;;;2.35;2.03;;;;;;;18.91;67.69;100033.38;679248;28;115208;-62
2021/08/08 01:28:59;;;;;;;2.40;2.15;;;;;;;18.89;67.68;100035.56;680899;28;90390;-61
2021/08/08 01:29:21;;;;;;;2.28;2.00;;;;;;;18.90;67.80;100037.19;683490;28;1261;-62
2021/08/08 01:29:43;;;;;;;2.50;2.00;;;;;;;18.87;67.66;100034.94;679506;28;44531;-62
2021/08/08 01:30:07;;;;;;;2.17;2.08;;;;;;;18.86;67.76;100031.41;680953;29;1543;-62
2021/08/08 01:30:30;;;;;;;2.35;2.15;;;;;;;18.86;67.76;100033.31;678250;28;69512;-62
2021/08/08 01:30:51;;;;;;;3.80;2.20;;;;;;;18.84;67.79;100032.69;680214;29;15019;-61
2021/08/08 01:31:13;;;;;;;2.13;1.98;;;;;;;18.83;67.79;100034.59;678532;29;46479;-62
2021/08/08 01:31:34;;;;;;;2.65;1.95;;;;;;;18.84;67.91;100032.69;679747;29;22550;-62
2021/08/08 01:31:57;;;;;;;2.03;1.92;;;;;;;18.84;67.91;100035.41;680567;29;21184;-62
2021/08/08 01:32:29;;;;;;;2.38;2.17;;;;;;;18.84;67.95;100035.41;676416;29;137721;-62
2021/08/08 01:32:50;;;;;;;2.40;2.15;;;;;;;18.81;67.83;100031.28;678147;29;93184;-61
2021/08/08 01:33:14;;;;;;;2.08;1.98;;;;;;;18.82;67.91;100037.59;679287;29;64163;-62
2021/08/08 01:33:42;;;;;;;2.60;2.00;;;;;;;18.80;68.00;100035.09;678196;28;137999;-62
2021/08/08 01:34:10;;;;;;;2.30;2.10;;;;;;;18.79;68.03;100030.69;677664;29;138023;-62
2021/08/08 01:34:31;;;;;;;2.30;2.20;;;;;;;18.80;67.94;100032.34;679129;29;46348;-62
2021/08/08 01:34:57;;;;;;;2.00;1.90;;;;;;;18.79;68.03;100030.69;676649;29;115299;-62
2021/08/08 01:35:20;;;;;;;2.00;1.90;;;;;;;18.79;67.92;100036.16;675367;29;92280;-62
2021/08/08 01:35:42;;;;;;;2.30;2.10;;;;;;;18.78;67.91;100036.41;678314;29;1730;-61
2021/08/08 01:36:06;;;;;;;2.20;2.00;;;;;;;18.77;67.88;100032.84;679568;29;1169;-62
2021/08/08 01:36:29;;;;;;;2.10;2.00;;;;;;;18.77;68.09;100026.56;676043;29;92115;-62
2021/08/08 01:36:51;;;;;;;2.17;2.08;;;;;;;18.76;67.91;100030.38;677522;29;21530;-61
2021/08/08 01:37:16;;;;;;;2.40;2.20;;;;;;;18.76;67.99;100031.22;677688;29;54000;-62
2021/08/08 01:37:39;;;;;;;2.40;1.98;;;;;;;18.76;67.96;100027.63;673048;29;113551;-61
2021/08/08 01:38:00;;;;;;;2.17;2.00;;;;;;;18.75;68.02;100031.47;676914;29;42628;-62
2021/08/08 01:38:22;;;;;;;1.90;1.80;;;;;;;18.76;67.99;100033.09;679683;29;25418;-61
2021/08/08 01:38:51;;;;;;;2.33;2.13;;;;;;;18.76;67.87;100033.09;678842;29;110289;-62
2021/08/08 01:39:19;;;;;;;2.35;2.10;;;;;;;18.76;67.96;100033.09;673830;29;114980;-61
2021/08/08 01:39:42;;;;;;;2.00;1.90;;;;;;;18.75;67.88;100023.25;677705;29;60084;-61
2021/08/08 01:40:09;;;;;;;2.13;2.03;;;;;;;18.75;68.01;100034.19;680562;29;35503;-62
2021/08/08 01:40:36;;;;;;;2.50;2.30;;;;;;;18.73;67.92;100034.44;678001;28;137808;-62
2021/08/08 01:41:01;;;;;;;3.08;2.00;;;;;;;18.73;68.05;100037.19;681760;28;61644;-62
2021/08/08 01:41:25;;;;;;;2.30;2.10;;;;;;;18.73;68.01;100034.44;677092;28;113752;-62
2021/08/08 01:41:56;;;;;;;2.00;1.90;;;;;;;18.72;67.96;100038.25;675033;29;126104;-61
2021/08/08 01:42:19;;;;;;;2.10;2.00;;;;;;;18.70;67.77;100034.94;673964;29;138142;-61
2021/08/08 01:42:46;;;;;;;2.10;2.00;;;;;;;18.70;67.99;100030.28;674336;29;134853;-62
2021/08/08 01:43:10;;;;;;;2.40;2.20;;;;;;;18.70;68.05;100029.47;678662;29;46360;-61
2021/08/08 01:43:34;;;;;;;2.05;1.95;;;;;;;18.70;68.19;100035.75;676617;29;92264;-62
2021/08/08 01:44:01;;;;;;;2.20;2.00;;;;;;;18.70;68.23;100032.22;674738;29;137569;-62
2021/08/08 01:44:25;;;;;;;2.13;1.95;;;;;;;18.69;68.08;100034.09;676409;29;91945;-62
2021/08/08 01:44:48;;;;;;;2.10;2.00;;;;;;;18.70;68.22;100035.75;675823;29;92299;-62
2021/08/08 01:45:13;;;;;;;2.05;1.95;;;;;;;18.70;67.89;100030.28;676254;29;68346;-62
2021/08/08 01:45:36;;;;;;;2.30;2.10;;;;;;;18.70;68.13;100026.75;676763;29;115532;-62
2021/08/08 01:46:04;;;;;;;2.08;1.98;;;;;;;18.69;68.00;100031.38;677346;29;67481;-62
2021/08/08 01:46:28;;;;;;;3.10;2.10;;;;;;;18.71;67.95;100036.59;674912;29;60844;-62
2021/08/08 01:47:25;;;;;;;2.30;1.98;;;;;;;18.72;67.96;100038.25;679475;29;62540;-63
2021/08/08 01:47:51;;;;;;;1.98;1.88;;;;;;;18.72;67.78;100033.59;678481;28;137926;-62
2021/08/08 01:48:17;;;;;;;3.30;2.00;;;;;;;18.73;67.74;100040.75;680471;28;161553;-62
2021/08/08 01:48:42;;;;;;;3.10;2.00;;;;;;;18.73;67.62;100031.72;685998;28;47749;-62
2021/08/08 01:49:06;;;;;;;2.00;1.90;;;;;;;18.71;67.80;100037.44;685829;28;36389;-62
2021/08/08 01:49:30;;;;;;;2.20;2.10;;;;;;;18.72;67.84;100041.81;681597;28;92569;-62